Time;durP1;ratioP1;P1;durP2;ratioP2;P2;SDS_P1;SDS_P2;PMS_P1;PMS_P2;Temp;Humidity;BMP_temperature;BMP_pressure;BME280_temperature;BME280_humidity;BME280_pressure;Samples;Min_cycle;Max_cycle;Signal;HPM_P1;HPM_P2
2023/03/30 00:00:53;;;;;;;10.8;6.7;;;;;;;3.2;66.6;98850;;;;
2023/03/30 00:11:53;;;;;;;10.8;6.7;;;;;;;3.7;64.9;98840;;;;
2023/03/30 00:21:53;;;;;;;7.3;3.6;;;;;;;4.1;63.9;98810;;;;
2023/03/30 00:31:53;;;;;;;7.3;3.6;;;;;;;4.4;62.7;98810;;;;
2023/03/30 00:42:53;;;;;;;7.3;3.6;;;;;;;4.6;62.2;98800;;;;
2023/03/30 00:53:53;;;;;;;7.7;4.1;;;;;;;4.7;62.6;98790;;;;
2023/03/30 01:04:53;;;;;;;7.7;4.1;;;;;;;4.8;62.2;98790;;;;
2023/03/30 01:14:54;;;;;;;7.7;4.1;;;;;;;4.8;62.5;98790;;;;
2023/03/30 01:24:53;;;;;;;7.8;3.7;;;;;;;4.7;63;98780;;;;
2023/03/30 01:34:56;;;;;;;7.8;3.7;;;;;;;4.6;63.3;98780;;;;
2023/03/30 01:44:53;;;;;;;7.8;3.7;;;;;;;4.6;63.7;98780;;;;
2023/03/30 01:55:53;;;;;;;11;6.1;;;;;;;4.5;64.2;98770;;;;
2023/03/30 02:05:53;;;;;;;11;6.1;;;;;;;4.4;64.7;98760;;;;
2023/03/30 02:15:54;;;;;;;7;3.5;;;;;;;4.4;65.5;98760;;;;
2023/03/30 02:25:55;;;;;;;7;3.5;;;;;;;4.3;65.2;98760;;;;
2023/03/30 02:35:54;;;;;;;7;3.5;;;;;;;4;65.5;98750;;;;
2023/03/30 02:45:54;;;;;;;6.2;3;;;;;;;3.9;67.6;98740;;;;
2023/03/30 02:56:53;;;;;;;6.2;3;;;;;;;3.9;68.2;98740;;;;
2023/03/30 03:07:53;;;;;;;6.2;3;;;;;;;4;68.9;98730;;;;
2023/03/30 03:18:54;;;;;;;5.2;2.4;;;;;;;3.9;69.1;98720;;;;
2023/03/30 03:29:53;;;;;;;5.2;2.4;;;;;;;3.9;69.2;98710;;;;
2023/03/30 03:39:53;;;;;;;5.2;2.4;;;;;;;4.1;70.1;98700;;;;
2023/03/30 03:49:53;;;;;;;4.7;2.5;;;;;;;4.4;70.3;98680;;;;
2023/03/30 04:00:53;;;;;;;4.7;2.5;;;;;;;4.8;70;98670;;;;
2023/03/30 04:10:53;;;;;;;4.7;2.5;;;;;;;5.1;69.7;98660;;;;
2023/03/30 04:20:53;;;;;;;6.1;2.3;;;;;;;5.2;69.4;98650;;;;
2023/03/30 04:31:55;;;;;;;6.1;2.3;;;;;;;5.3;69.3;98640;;;;
2023/03/30 04:42:53;;;;;;;6.1;2.3;;;;;;;5.4;69.4;98640;;;;
2023/03/30 04:52:54;;;;;;;4.2;2.1;;;;;;;5.9;69.3;98620;;;;
2023/03/30 05:03:53;;;;;;;4.2;2.1;;;;;;;6.3;68.5;98610;;;;
2023/03/30 05:14:53;;;;;;;4.2;2.1;;;;;;;6.7;67.7;98610;;;;
2023/03/30 05:24:53;;;;;;;6.2;3;;;;;;;6.9;67;98600;;;;
2023/03/30 05:34:54;;;;;;;6.2;3;;;;;;;7.1;66.6;98600;;;;
2023/03/30 05:44:55;;;;;;;6.2;3;;;;;;;7.3;66.6;98610;;;;
2023/03/30 05:55:54;;;;;;;7;3.3;;;;;;;7.4;66.1;98610;;;;
2023/03/30 06:05:53;;;;;;;7;3.3;;;;;;;7.6;65.5;98600;;;;
2023/03/30 06:15:54;;;;;;;6.1;3.5;;;;;;;7.9;65.1;98590;;;;
2023/03/30 06:26:54;;;;;;;6.1;3.5;;;;;;;8.3;64.8;98570;;;;
2023/03/30 06:36:53;;;;;;;6.1;3.5;;;;;;;8.5;64.4;98560;;;;
2023/03/30 06:46:53;;;;;;;6.6;3.9;;;;;;;9.1;63.8;98550;;;;
2023/03/30 06:57:54;;;;;;;6.6;3.9;;;;;;;9.4;63.7;98550;;;;
2023/03/30 07:08:54;;;;;;;6.6;3.9;;;;;;;10;62.1;98540;;;;
2023/03/30 07:19:54;;;;;;;5.6;3.3;;;;;;;10.7;61.2;98540;;;;
2023/03/30 07:30:54;;;;;;;5.6;3.3;;;;;;;11;58.5;98530;;;;
2023/03/30 07:41:53;;;;;;;5.6;3.3;;;;;;;11.6;57.9;98520;;;;
2023/03/30 07:51:54;;;;;;;5.6;3.3;;;;;;;11.9;56.4;98510;;;;
2023/03/30 08:02:53;;;;;;;5.6;3.3;;;;;;;12;55.5;98500;;;;
2023/03/30 08:12:54;;;;;;;5.6;3.3;;;;;;;12.6;55.9;98490;;;;
2023/03/30 08:22:54;;;;;;;6.8;2.8;;;;;;;12.8;55.2;98480;;;;
2023/03/30 08:33:54;;;;;;;6.8;2.8;;;;;;;13.3;54.5;98470;;;;
2023/03/30 08:43:54;;;;;;;6.8;2.8;;;;;;;13.9;54.7;98470;;;;
2023/03/30 08:54:54;;;;;;;5.2;3;;;;;;;14.5;54.9;98460;;;;
2023/03/30 09:04:56;;;;;;;5.2;3;;;;;;;14.5;49.9;98460;;;;
2023/03/30 09:14:54;;;;;;;5.7;3.2;;;;;;;14.4;51.8;98460;;;;
2023/03/30 09:25:54;;;;;;;5.7;3.2;;;;;;;14.5;51.9;98430;;;;
2023/03/30 09:35:54;;;;;;;5.7;3.2;;;;;;;15;50.8;98420;;;;
2023/03/30 09:46:54;;;;;;;5.2;2.4;;;;;;;15.1;50;98400;;;;
2023/03/30 09:56:55;;;;;;;5.2;2.4;;;;;;;15;49.2;98390;;;;
2023/03/30 10:06:54;;;;;;;5.2;2.4;;;;;;;14.6;50.3;98380;;;;
2023/03/30 10:17:55;;;;;;;3.6;1.8;;;;;;;14.2;51.1;98370;;;;
2023/03/30 10:27:54;;;;;;;3.6;1.8;;;;;;;14.1;52.7;98350;;;;
2023/03/30 10:38:54;;;;;;;3.6;1.8;;;;;;;14.9;51.9;98330;;;;
2023/03/30 10:49:54;;;;;;;5.4;2.8;;;;;;;15.2;52.6;98300;;;;
2023/03/30 10:59:54;;;;;;;5.4;2.8;;;;;;;16;50.3;98300;;;;
2023/03/30 11:09:54;;;;;;;5.4;2.8;;;;;;;16.5;51.3;98270;;;;
2023/03/30 11:19:54;;;;;;;5.3;2.6;;;;;;;16.5;49.1;98240;;;;
2023/03/30 11:29:54;;;;;;;5.3;2.6;;;;;;;16.2;50.5;98250;;;;
2023/03/30 11:39:54;;;;;;;5.3;2.6;;;;;;;15.8;51;98250;;;;
2023/03/30 11:50:54;;;;;;;5.3;2.4;;;;;;;16;51.6;98250;;;;
2023/03/30 12:00:54;;;;;;;5.3;2.4;;;;;;;15.8;52.4;98240;;;;
2023/03/30 12:10:05;;;;;;;5.3;2.4;;;;;;;16.1;51.9;98210;;;;
2023/03/30 12:20:03;;;;;;;5.5;2.2;;;;;;;16.7;51.3;98170;;;;
2023/03/30 12:30:04;;;;;;;5.5;2.2;;;;;;;16.5;51.6;98170;;;;
2023/03/30 12:41:04;;;;;;;5.5;2.2;;;;;;;16.9;51.4;98160;;;;
2023/03/30 12:52:03;;;;;;;7.1;2.9;;;;;;;16.8;50.7;98170;;;;
2023/03/30 13:02:03;;;;;;;7.1;2.9;;;;;;;16.5;51.4;98180;;;;
2023/03/30 13:12:03;;;;;;;7.1;2.9;;;;;;;16.3;52;98170;;;;
2023/03/30 13:23:03;;;;;;;7.5;3.1;;;;;;;16.3;51.9;98180;;;;
2023/03/30 13:34:03;;;;;;;7.5;3.1;;;;;;;16.1;51.9;98180;;;;
2023/03/30 13:44:03;;;;;;;7.5;3.1;;;;;;;16;52.2;98180;;;;
2023/03/30 13:55:03;;;;;;;7.6;3.6;;;;;;;15.8;52.9;98170;;;;
2023/03/30 14:06:04;;;;;;;7.6;3.6;;;;;;;15.5;53.3;98170;;;;
2023/03/30 14:17:04;;;;;;;7.3;3.3;;;;;;;15.2;53.6;98170;;;;
2023/03/30 14:27:03;;;;;;;7.3;3.3;;;;;;;15.3;54.5;98170;;;;
2023/03/30 14:37:03;;;;;;;7.3;3.3;;;;;;;15.2;53.9;98170;;;;
2023/03/30 14:47:03;;;;;;;9;4.2;;;;;;;15;54.3;98160;;;;
2023/03/30 14:58:03;;;;;;;9;4.2;;;;;;;14.7;55.6;98170;;;;
2023/03/30 15:08:04;;;;;;;9;4.2;;;;;;;14.8;56.2;98160;;;;
2023/03/30 15:19:03;;;;;;;10.2;5.2;;;;;;;14.8;56.5;98160;;;;
2023/03/30 15:30:03;;;;;;;10.2;5.2;;;;;;;14.7;56.4;98160;;;;
2023/03/30 15:41:05;;;;;;;10.2;5.2;;;;;;;14.4;60.2;98150;;;;
2023/03/30 15:51:03;;;;;;;13.1;6.7;;;;;;;14.1;62.8;98130;;;;
2023/03/30 16:01:04;;;;;;;13.1;6.7;;;;;;;13.9;63.3;98120;;;;
2023/03/30 16:12:03;;;;;;;13.1;6.7;;;;;;;13.5;62.8;98120;;;;
2023/03/30 16:23:04;;;;;;;10.1;5.9;;;;;;;12.9;64.6;98110;;;;
2023/03/30 16:34:03;;;;;;;10.1;5.9;;;;;;;12.4;66.7;98100;;;;
2023/03/30 16:45:03;;;;;;;9.4;5.6;;;;;;;12.2;68.6;98100;;;;
2023/03/30 16:56:03;;;;;;;9.4;5.6;;;;;;;11.9;72;98090;;;;
2023/03/30 17:06:03;;;;;;;9.4;5.6;;;;;;;11.5;74.9;98080;;;;
2023/03/30 17:17:03;;;;;;;8.5;4.8;;;;;;;11.2;77.7;98080;;;;
2023/03/30 17:28:04;;;;;;;8.5;4.8;;;;;;;11;79.2;98070;;;;
2023/03/30 17:38:04;;;;;;;8.5;4.8;;;;;;;10.9;80.3;98060;;;;
2023/03/30 17:49:03;;;;;;;10;5;;;;;;;10.8;81;98050;;;;
2023/03/30 18:00:05;;;;;;;10;5;;;;;;;10.9;81;98040;;;;
2023/03/30 18:11:03;;;;;;;10;5;;;;;;;11;80.3;98050;;;;
2023/03/30 18:21:05;;;;;;;9.1;5.2;;;;;;;11.1;79.6;98060;;;;
2023/03/30 18:32:03;;;;;;;9.1;5.2;;;;;;;11.1;78.8;98060;;;;
2023/03/30 18:43:03;;;;;;;9.1;5.2;;;;;;;11.1;79.2;98060;;;;
2023/03/30 18:54:03;;;;;;;17.9;12;;;;;;;11;80.4;98060;;;;
2023/03/30 19:04:04;;;;;;;17.9;12;;;;;;;10.9;80.9;98050;;;;
2023/03/30 19:14:03;;;;;;;17.9;12;;;;;;;10.9;80.6;98050;;;;
2023/03/30 19:25:03;;;;;;;23.4;13.5;;;;;;;10.8;80.6;98040;;;;
2023/03/30 19:36:04;;;;;;;23.4;13.5;;;;;;;10.8;80.4;98030;;;;
2023/03/30 19:47:03;;;;;;;15.9;9.5;;;;;;;10.8;79.8;98020;;;;
2023/03/30 19:57:04;;;;;;;15.9;9.5;;;;;;;10.8;78.6;98030;;;;
2023/03/30 20:07:04;;;;;;;15.9;9.5;;;;;;;10.9;78.2;98040;;;;
2023/03/30 20:18:03;;;;;;;13.7;7.6;;;;;;;10.9;78;98040;;;;
2023/03/30 20:29:04;;;;;;;13.7;7.6;;;;;;;11;77.8;98030;;;;
2023/03/30 20:39:06;;;;;;;13.7;7.6;;;;;;;11;77.5;98020;;;;
2023/03/30 20:50:03;;;;;;;10.6;6.1;;;;;;;11;77;98020;;;;
2023/03/30 21:00:06;;;;;;;10.6;6.1;;;;;;;10.9;77.1;98000;;;;
2023/03/30 21:11:03;;;;;;;10.6;6.1;;;;;;;10.9;76.5;97990;;;;
2023/03/30 21:22:04;;;;;;;7.3;4.6;;;;;;;10.8;76.3;97990;;;;
2023/03/30 21:32:04;;;;;;;7.3;4.6;;;;;;;10.7;76.3;97990;;;;
2023/03/30 21:43:04;;;;;;;7.3;4.6;;;;;;;10.7;76.4;97990;;;;
2023/03/30 21:53:03;;;;;;;7.5;5.3;;;;;;;10.6;76.5;97970;;;;
2023/03/30 22:04:04;;;;;;;7.5;5.3;;;;;;;10.6;76.6;97960;;;;
2023/03/30 22:14:03;;;;;;;7.5;5.3;;;;;;;10.5;76.8;97960;;;;
2023/03/30 22:24:04;;;;;;;9.8;6;;;;;;;10.5;76.9;97930;;;;
2023/03/30 22:35:04;;;;;;;9.8;6;;;;;;;10.4;76.9;97940;;;;
2023/03/30 22:46:04;;;;;;;9.4;6.4;;;;;;;10.3;77.3;97940;;;;
2023/03/30 22:56:04;;;;;;;9.4;6.4;;;;;;;10.2;77.7;97940;;;;
2023/03/30 23:07:04;;;;;;;9.4;6.4;;;;;;;10.2;77.6;97920;;;;
2023/03/30 23:17:04;;;;;;;10.5;7;;;;;;;10.2;77.6;97930;;;;
2023/03/30 23:27:04;;;;;;;10.5;7;;;;;;;10.2;77.7;97950;;;;
2023/03/30 23:37:04;;;;;;;10.5;7;;;;;;;10.3;77.8;97950;;;;
2023/03/30 23:47:04;;;;;;;9.8;6.3;;;;;;;10.4;77.7;97960;;;;
2023/03/30 23:58:04;;;;;;;9.8;6.3;;;;;;;10.4;77.6;97960;;;;
